createdAt,value
2018-06-10T00:00:21.755Z,14.30
2018-06-10T00:00:54.414Z,14.30
2018-06-10T00:01:27.082Z,14.50
2018-06-10T00:01:59.759Z,13.90
2018-06-10T00:02:32.423Z,14.25
2018-06-10T00:03:05.343Z,17.77
2018-06-10T00:03:38.238Z,11.35
2018-06-10T00:04:10.932Z,16.35
2018-06-10T00:04:43.623Z,18.27
2018-06-10T00:05:16.322Z,15.18
2018-06-10T00:05:48.999Z,16.00
2018-06-10T00:06:21.782Z,12.90
2018-06-10T00:06:54.490Z,15.45
2018-06-10T00:07:27.210Z,12.75
2018-06-10T00:07:59.891Z,13.68
2018-06-10T00:08:32.546Z,13.08
2018-06-10T00:09:06.616Z,13.28
2018-06-10T00:09:39.306Z,16.05
2018-06-10T00:10:12.004Z,13.75
2018-06-10T00:10:44.689Z,12.95
2018-06-10T00:11:17.371Z,19.40
2018-06-10T00:11:50.030Z,13.20
2018-06-10T00:12:22.682Z,16.95
2018-06-10T00:12:55.343Z,14.50
2018-06-10T00:13:28.003Z,16.23
2018-06-10T00:14:00.678Z,14.23
2018-06-10T00:14:33.370Z,15.18
2018-06-10T00:15:06.251Z,11.65
2018-06-10T00:15:38.946Z,16.52
2018-06-10T00:16:11.634Z,16.62
2018-06-10T00:16:44.331Z,15.18
2018-06-10T00:17:16.990Z,15.95
2018-06-10T00:17:49.666Z,13.43
2018-06-10T00:18:22.363Z,11.80
2018-06-10T00:18:55.014Z,13.18
2018-06-10T00:19:27.658Z,16.15
2018-06-10T00:20:00.304Z,19.20
2018-06-10T00:20:32.970Z,19.55
2018-06-10T00:21:05.858Z,17.37
2018-06-10T00:21:38.546Z,13.38
2018-06-10T00:22:11.219Z,13.83
2018-06-10T00:22:43.899Z,15.53
2018-06-10T00:23:16.619Z,14.15
2018-06-10T00:23:49.279Z,16.67
2018-06-10T00:24:21.922Z,17.52
2018-06-10T00:24:54.586Z,13.65
2018-06-10T00:25:27.279Z,14.38
2018-06-10T00:25:59.926Z,16.15
2018-06-10T00:26:32.618Z,11.85
2018-06-10T00:27:05.307Z,17.30
2018-06-10T00:27:37.984Z,13.65
2018-06-10T00:28:11.185Z,16.82
2018-06-10T00:28:49.486Z,14.15
2018-06-10T00:29:22.503Z,12.90
2018-06-10T00:29:55.178Z,18.48
2018-06-10T00:30:27.866Z,19.52
2018-06-10T00:31:00.519Z,13.03
2018-06-10T00:31:33.222Z,12.07
2018-06-10T00:32:06.004Z,13.38
2018-06-10T00:32:38.686Z,18.67
2018-06-10T00:33:11.350Z,16.57
2018-06-10T00:33:43.999Z,17.98
2018-06-10T00:34:17.235Z,23.87
2018-06-10T00:34:49.879Z,12.00
2018-06-10T00:35:22.530Z,12.80
2018-06-10T00:35:55.203Z,15.68
2018-06-10T00:36:27.859Z,12.03
2018-06-10T00:37:00.551Z,12.70
2018-06-10T00:37:33.254Z,14.58
2018-06-10T00:38:05.914Z,15.10
2018-06-10T00:38:38.595Z,14.40
2018-06-10T00:39:11.271Z,19.02
2018-06-10T00:39:43.939Z,16.87
2018-06-10T00:40:16.654Z,13.60
2018-06-10T00:40:49.319Z,19.10
2018-06-10T00:41:21.991Z,13.30
2018-06-10T00:41:54.644Z,15.98
2018-06-10T00:42:27.299Z,17.67
2018-06-10T00:42:59.999Z,12.58
2018-06-10T00:43:32.663Z,17.20
2018-06-10T00:44:05.416Z,16.15
2018-06-10T00:44:38.102Z,12.90
2018-06-10T00:45:10.770Z,16.70
2018-06-10T00:45:43.503Z,14.98
2018-06-10T00:46:16.186Z,16.70
2018-06-10T00:46:48.834Z,17.48
2018-06-10T00:47:21.513Z,18.62
2018-06-10T00:47:54.199Z,14.30
2018-06-10T00:48:26.918Z,17.90
2018-06-10T00:48:59.627Z,14.65
2018-06-10T00:49:32.326Z,19.60
2018-06-10T00:50:05.022Z,19.57
2018-06-10T00:50:37.694Z,29.30
2018-06-10T00:51:10.364Z,14.38
2018-06-10T00:51:43.046Z,16.90
2018-06-10T00:52:15.730Z,17.73
2018-06-10T00:52:48.398Z,19.82
2018-06-10T00:53:21.066Z,14.93
2018-06-10T00:53:53.760Z,14.80
2018-06-10T00:54:26.438Z,15.18
2018-06-10T00:54:59.102Z,21.42
2018-06-10T00:55:31.775Z,18.07
2018-06-10T00:56:14.635Z,14.60
2018-06-10T00:56:52.343Z,22.52
2018-06-10T00:57:24.998Z,17.32
2018-06-10T00:57:57.666Z,16.52
2018-06-10T00:58:30.338Z,21.45
2018-06-10T00:59:03.031Z,12.47
2018-06-10T00:59:35.722Z,13.90
2018-06-10T01:00:08.410Z,15.40
2018-06-10T01:00:41.107Z,16.75
2018-06-10T01:01:13.775Z,16.80
2018-06-10T01:01:46.438Z,16.52
2018-06-10T01:02:19.115Z,15.75
2018-06-10T01:02:52.281Z,21.62
2018-06-10T01:03:24.950Z,19.85
2018-06-10T01:03:57.595Z,14.00
2018-06-10T01:04:30.291Z,17.07
2018-06-10T01:05:03.038Z,18.15
2018-06-10T01:05:35.751Z,22.87
2018-06-10T01:06:08.434Z,16.15
2018-06-10T01:06:41.164Z,17.65
2018-06-10T01:07:13.854Z,16.65
2018-06-10T01:07:46.527Z,16.10
2018-06-10T01:08:19.210Z,22.42
2018-06-10T01:08:51.879Z,20.62
2018-06-10T01:09:24.540Z,18.05
2018-06-10T01:09:57.274Z,21.93
2018-06-10T01:10:29.946Z,16.17
2018-06-10T01:11:02.646Z,15.18
2018-06-10T01:11:35.781Z,18.50
2018-06-10T01:12:08.482Z,16.27
2018-06-10T01:12:41.167Z,14.58
2018-06-10T01:13:13.827Z,16.85
2018-06-10T01:13:46.490Z,15.05
2018-06-10T01:14:19.178Z,15.43
2018-06-10T01:14:51.837Z,19.90
2018-06-10T01:15:24.527Z,19.35
2018-06-10T01:15:57.218Z,17.30
2018-06-10T01:16:29.915Z,18.27
2018-06-10T01:17:02.614Z,16.02
2018-06-10T01:17:35.290Z,15.43
2018-06-10T01:18:07.975Z,19.23
2018-06-10T01:18:40.718Z,19.50
2018-06-10T01:19:13.366Z,16.12
2018-06-10T01:19:46.071Z,26.12
2018-06-10T01:20:18.746Z,21.65
2018-06-10T01:20:51.459Z,15.80
2018-06-10T01:21:24.146Z,16.73
2018-06-10T01:21:56.809Z,18.20
2018-06-10T01:22:29.487Z,17.15
2018-06-10T01:23:02.146Z,16.62
2018-06-10T01:23:34.830Z,21.50
2018-06-10T01:24:07.559Z,16.50
2018-06-10T01:24:40.239Z,19.32
2018-06-10T01:25:13.027Z,18.67
2018-06-10T01:25:45.687Z,18.60
2018-06-10T01:26:24.138Z,15.40
2018-06-10T01:26:56.794Z,18.85
2018-06-10T01:27:29.462Z,21.27
2018-06-10T01:28:02.194Z,23.85
2018-06-10T01:28:34.850Z,17.50
2018-06-10T01:29:07.563Z,27.45
2018-06-10T01:29:40.174Z,27.87
2018-06-10T01:30:12.846Z,17.98
2018-06-10T01:30:45.522Z,17.15
2018-06-10T01:31:18.194Z,20.27
2018-06-10T01:31:50.914Z,20.20
2018-06-10T01:32:23.599Z,21.68
2018-06-10T01:32:56.255Z,24.80
2018-06-10T01:33:28.943Z,21.10
2018-06-10T01:34:01.607Z,17.10
2018-06-10T01:34:34.263Z,22.05
2018-06-10T01:35:07.299Z,16.30
2018-06-10T01:35:39.979Z,28.02
2018-06-10T01:36:12.634Z,17.25
2018-06-10T01:36:45.310Z,19.32
2018-06-10T01:37:18.019Z,21.70
2018-06-10T01:37:50.690Z,19.10
2018-06-10T01:38:23.421Z,17.23
2018-06-10T01:38:56.970Z,25.10
2018-06-10T01:39:29.638Z,20.17
2018-06-10T01:40:02.307Z,22.58
2018-06-10T01:40:34.982Z,20.50
2018-06-10T01:41:07.694Z,20.17
2018-06-10T01:41:40.371Z,20.35
2018-06-10T01:42:13.035Z,22.87
2018-06-10T01:42:45.739Z,18.62
2018-06-10T01:43:18.399Z,17.45
2018-06-10T01:43:51.070Z,21.12
2018-06-10T01:44:23.734Z,16.60
2018-06-10T01:44:56.402Z,17.25
2018-06-10T01:45:29.086Z,20.20
2018-06-10T01:46:01.814Z,18.90
2018-06-10T01:46:34.498Z,24.77
2018-06-10T01:47:07.329Z,24.50
2018-06-10T01:47:39.978Z,21.97
2018-06-10T01:48:12.694Z,20.90
2018-06-10T01:48:45.358Z,15.85
2018-06-10T01:49:18.038Z,19.98
2018-06-10T01:49:50.734Z,16.85
2018-06-10T01:50:23.382Z,21.60
2018-06-10T01:50:55.965Z,19.02
2018-06-10T01:51:28.635Z,19.85
2018-06-10T01:52:01.266Z,21.20
2018-06-10T01:52:33.922Z,19.75
2018-06-10T01:53:06.603Z,19.35
2018-06-10T01:53:39.306Z,23.12
2018-06-10T01:54:11.995Z,24.25
2018-06-10T01:54:44.650Z,22.15
2018-06-10T01:55:17.298Z,18.62
2018-06-10T01:55:50.055Z,20.32
2018-06-10T01:56:22.726Z,21.48
2018-06-10T01:56:55.415Z,23.30
2018-06-10T01:57:28.075Z,14.73
2018-06-10T01:58:00.718Z,21.75
2018-06-10T01:58:33.371Z,22.77
2018-06-10T01:59:06.102Z,17.77
2018-06-10T01:59:38.792Z,21.85
2018-06-10T02:00:11.511Z,24.55
2018-06-10T02:00:44.199Z,22.60
2018-06-10T02:01:16.899Z,18.02
2018-06-10T02:01:49.553Z,22.85
2018-06-10T02:02:22.442Z,19.32
2018-06-10T02:02:55.095Z,22.58
2018-06-10T02:03:27.759Z,22.55
2018-06-10T02:04:00.582Z,18.98
2018-06-10T02:04:33.286Z,19.65
2018-06-10T02:05:06.396Z,19.02
2018-06-10T02:05:39.075Z,19.20
2018-06-10T02:06:11.778Z,17.40
2018-06-10T02:06:44.466Z,17.23
2018-06-10T02:07:17.142Z,15.85
2018-06-10T02:07:49.822Z,19.57
2018-06-10T02:08:22.505Z,20.00
2018-06-10T02:08:55.183Z,17.67
2018-06-10T02:09:27.862Z,16.62
2018-06-10T02:10:00.549Z,19.95
2018-06-10T02:10:33.202Z,16.97
2018-06-10T02:11:05.907Z,16.75
2018-06-10T02:11:38.558Z,21.93
2018-06-10T02:12:11.251Z,20.88
2018-06-10T02:12:43.904Z,21.37
2018-06-10T02:13:16.558Z,21.80
2018-06-10T02:13:49.228Z,15.30
2018-06-10T02:14:21.882Z,16.93
2018-06-10T02:14:54.530Z,16.35
2018-06-10T02:15:27.234Z,18.00
2018-06-10T02:15:59.902Z,17.27
2018-06-10T02:16:32.582Z,18.80
2018-06-10T02:17:05.230Z,19.82
2018-06-10T02:17:37.911Z,19.32
2018-06-10T02:18:10.606Z,21.45
2018-06-10T02:18:43.271Z,18.60
2018-06-10T02:19:15.950Z,16.67
2018-06-10T02:19:48.711Z,19.55
2018-06-10T02:20:21.365Z,15.70
2018-06-10T02:20:54.067Z,19.52
2018-06-10T02:21:26.726Z,18.92
2018-06-10T02:21:59.382Z,19.10
2018-06-10T02:22:32.054Z,18.77
2018-06-10T02:23:04.757Z,19.00
2018-06-10T02:23:37.448Z,20.65
2018-06-10T02:24:10.120Z,20.08
2018-06-10T02:24:42.773Z,19.95
2018-06-10T02:25:15.562Z,19.15
2018-06-10T02:25:48.218Z,20.23
2018-06-10T02:26:20.890Z,17.87
2018-06-10T02:26:53.542Z,18.82
2018-06-10T02:27:26.210Z,20.90
2018-06-10T02:27:58.866Z,21.55
2018-06-10T02:28:31.514Z,20.70
2018-06-10T02:29:04.263Z,19.52
2018-06-10T02:29:36.918Z,19.02
2018-06-10T02:30:09.582Z,17.75
2018-06-10T02:30:42.243Z,18.90
2018-06-10T02:31:14.899Z,18.48
2018-06-10T02:31:47.567Z,16.55
2018-06-10T02:32:20.227Z,17.15
2018-06-10T02:32:52.906Z,19.37
2018-06-10T02:33:25.570Z,19.42
2018-06-10T02:33:58.223Z,18.40
2018-06-10T02:34:30.878Z,18.87
2018-06-10T02:35:03.546Z,26.90
2018-06-10T02:35:36.239Z,19.35
2018-06-10T02:36:08.902Z,18.70
2018-06-10T02:36:41.571Z,18.45
2018-06-10T02:37:14.270Z,17.87
2018-06-10T02:37:46.918Z,21.93
2018-06-10T02:38:19.578Z,20.60
2018-06-10T02:38:52.210Z,21.70
2018-06-10T02:39:24.871Z,19.52
2018-06-10T02:39:57.557Z,28.20
2018-06-10T02:40:30.222Z,20.57
2018-06-10T02:41:02.911Z,17.00
2018-06-10T02:41:35.571Z,18.52
2018-06-10T02:42:08.286Z,15.32
2018-06-10T02:42:40.908Z,15.83
2018-06-10T02:43:13.570Z,17.30
2018-06-10T02:43:46.245Z,16.23
2018-06-10T02:44:18.905Z,17.75
2018-06-10T02:44:51.554Z,20.52
2018-06-10T02:45:24.226Z,20.90
2018-06-10T02:45:56.887Z,19.35
2018-06-10T02:46:29.567Z,17.40
2018-06-10T02:47:02.234Z,16.32
2018-06-10T02:47:34.962Z,19.45
2018-06-10T02:48:07.655Z,22.80
2018-06-10T02:48:40.339Z,22.80
2018-06-10T02:49:13.006Z,16.05
2018-06-10T02:49:45.670Z,19.42
2018-06-10T02:50:18.363Z,16.77
2018-06-10T02:50:51.031Z,17.50
2018-06-10T02:51:23.714Z,13.50
2018-06-10T02:51:56.392Z,19.17
2018-06-10T02:52:29.186Z,17.30
2018-06-10T02:53:01.851Z,16.25
2018-06-10T02:53:34.886Z,21.52
2018-06-10T02:54:07.473Z,16.02
2018-06-10T02:54:40.152Z,18.17
2018-06-10T02:55:12.843Z,20.48
2018-06-10T02:55:45.502Z,14.90
2018-06-10T02:56:18.174Z,18.80
2018-06-10T02:56:50.876Z,17.25
2018-06-10T02:57:30.322Z,21.23
2018-06-10T02:58:03.010Z,18.10
2018-06-10T02:58:35.719Z,18.60
2018-06-10T02:59:08.415Z,19.60
2018-06-10T02:59:41.083Z,14.90
2018-06-10T03:00:13.762Z,16.95
2018-06-10T03:00:46.443Z,15.65
2018-06-10T03:01:19.114Z,20.60
2018-06-10T03:01:51.794Z,18.25
2018-06-10T03:02:24.466Z,15.32
2018-06-10T03:02:57.147Z,20.60
2018-06-10T03:03:29.822Z,20.27
2018-06-10T03:04:02.449Z,17.50
2018-06-10T03:04:35.134Z,16.85
2018-06-10T03:05:07.846Z,20.40
2018-06-10T03:05:40.515Z,17.55
2018-06-10T03:06:13.177Z,15.80
2018-06-10T03:06:45.835Z,18.02
2018-06-10T03:07:18.482Z,16.57
2018-06-10T03:07:51.192Z,21.80
2018-06-10T03:08:23.802Z,20.72
2018-06-10T03:08:56.455Z,19.20
2018-06-10T03:09:29.134Z,18.00
2018-06-10T03:10:01.846Z,18.32
2018-06-10T03:10:34.603Z,18.00
2018-06-10T03:11:07.322Z,17.27
2018-06-10T03:11:40.023Z,17.45
2018-06-10T03:12:12.686Z,17.20
2018-06-10T03:12:45.353Z,17.60
2018-06-10T03:13:18.011Z,22.87
2018-06-10T03:13:50.662Z,15.30
2018-06-10T03:14:23.311Z,21.20
2018-06-10T03:14:56.053Z,18.57
2018-06-10T03:15:28.730Z,22.52
2018-06-10T03:16:01.410Z,19.40
2018-06-10T03:16:34.073Z,17.87
2018-06-10T03:17:06.743Z,19.55
2018-06-10T03:17:39.427Z,22.85
2018-06-10T03:18:12.091Z,20.60
2018-06-10T03:18:44.750Z,16.97
2018-06-10T03:19:17.443Z,20.05
2018-06-10T03:19:50.122Z,17.87
2018-06-10T03:20:22.853Z,21.20
2018-06-10T03:20:55.510Z,17.67
2018-06-10T03:21:28.167Z,20.70
2018-06-10T03:22:00.826Z,20.80
2018-06-10T03:22:33.514Z,17.98
2018-06-10T03:23:06.190Z,21.02
2018-06-10T03:23:38.892Z,20.68
2018-06-10T03:24:11.554Z,22.65
2018-06-10T03:24:44.215Z,19.07
2018-06-10T03:25:16.881Z,19.50
2018-06-10T03:25:49.554Z,26.90
2018-06-10T03:26:22.226Z,23.92
2018-06-10T03:26:54.890Z,17.30
2018-06-10T03:27:27.566Z,19.82
2018-06-10T03:28:00.250Z,19.00
2018-06-10T03:28:32.921Z,20.40
2018-06-10T03:29:05.643Z,23.45
2018-06-10T03:29:38.354Z,19.25
2018-06-10T03:30:11.006Z,17.92
2018-06-10T03:30:43.694Z,18.65
2018-06-10T03:31:16.375Z,19.40
2018-06-10T03:31:49.046Z,20.43
2018-06-10T03:32:21.698Z,17.60
2018-06-10T03:32:54.363Z,24.07
2018-06-10T03:33:27.033Z,19.40
2018-06-10T03:33:59.694Z,15.95
2018-06-10T03:34:32.338Z,17.15
2018-06-10T03:35:05.048Z,16.70
2018-06-10T03:35:37.714Z,18.55
2018-06-10T03:36:10.399Z,20.65
2018-06-10T03:36:43.087Z,20.80
2018-06-10T03:37:15.742Z,18.07
2018-06-10T03:37:48.406Z,19.95
2018-06-10T03:38:21.067Z,18.80
2018-06-10T03:38:53.714Z,17.35
2018-06-10T03:39:26.375Z,21.30
2018-06-10T03:39:59.040Z,20.80
2018-06-10T03:40:31.698Z,20.12
2018-06-10T03:41:04.370Z,20.10
2018-06-10T03:41:37.043Z,17.15
2018-06-10T03:42:09.763Z,22.77
2018-06-10T03:42:42.434Z,24.25
2018-06-10T03:43:15.079Z,23.40
2018-06-10T03:43:47.734Z,22.40
2018-06-10T03:44:20.397Z,21.57
2018-06-10T03:44:53.053Z,24.47
2018-06-10T03:45:25.698Z,20.52
2018-06-10T03:45:58.354Z,20.92
2018-06-10T03:46:31.057Z,22.67
2018-06-10T03:47:03.708Z,25.70
2018-06-10T03:47:36.418Z,19.62
2018-06-10T03:48:09.126Z,21.23
2018-06-10T03:48:41.799Z,22.45
2018-06-10T03:49:14.454Z,21.42
2018-06-10T03:49:47.115Z,23.57
2018-06-10T03:50:19.758Z,20.97
2018-06-10T03:50:52.418Z,25.12
2018-06-10T03:51:25.082Z,23.85
2018-06-10T03:51:57.774Z,22.95
2018-06-10T03:52:30.466Z,24.55
2018-06-10T03:53:03.187Z,24.20
2018-06-10T03:53:35.875Z,25.17
2018-06-10T03:54:08.544Z,22.75
2018-06-10T03:54:41.278Z,30.48
2018-06-10T03:55:13.926Z,23.85
2018-06-10T03:55:46.623Z,19.27
2018-06-10T03:56:19.402Z,23.52
2018-06-10T03:56:52.099Z,23.92
2018-06-10T03:57:24.767Z,24.20
2018-06-10T03:57:57.434Z,26.73
2018-06-10T03:58:30.134Z,23.75
2018-06-10T03:59:02.804Z,22.95
2018-06-10T03:59:35.482Z,22.45
2018-06-10T04:00:08.191Z,30.68
2018-06-10T04:00:40.893Z,25.40
2018-06-10T04:01:13.638Z,24.50
2018-06-10T04:01:46.295Z,26.37
2018-06-10T04:02:18.953Z,23.05
2018-06-10T04:02:51.618Z,21.52
2018-06-10T04:03:24.273Z,24.10
2018-06-10T04:03:56.962Z,23.98
2018-06-10T04:04:29.625Z,26.57
2018-06-10T04:05:02.351Z,23.25
2018-06-10T04:05:35.406Z,23.27
2018-06-10T04:06:08.111Z,23.25
2018-06-10T04:06:40.771Z,23.40
2018-06-10T04:07:13.446Z,20.55
2018-06-10T04:07:46.111Z,21.27
2018-06-10T04:08:18.769Z,25.48
2018-06-10T04:08:51.418Z,20.72
2018-06-10T04:09:24.113Z,20.88
2018-06-10T04:09:56.774Z,25.80
2018-06-10T04:10:29.451Z,21.02
2018-06-10T04:11:02.107Z,25.52
2018-06-10T04:11:35.083Z,25.95
2018-06-10T04:12:07.791Z,21.25
2018-06-10T04:12:40.474Z,18.62
2018-06-10T04:13:13.133Z,24.00
2018-06-10T04:13:45.790Z,24.90
2018-06-10T04:14:18.450Z,22.65
2018-06-10T04:14:51.131Z,19.77
2018-06-10T04:15:23.799Z,21.68
2018-06-10T04:15:56.374Z,21.75
2018-06-10T04:16:29.254Z,28.67
2018-06-10T04:17:01.898Z,23.25
2018-06-10T04:17:34.542Z,22.02
2018-06-10T04:18:07.254Z,29.50
2018-06-10T04:18:39.922Z,30.20
2018-06-10T04:19:12.598Z,24.67
2018-06-10T04:19:45.262Z,27.77
2018-06-10T04:20:17.962Z,20.85
2018-06-10T04:20:50.614Z,26.60
2018-06-10T04:21:23.275Z,24.30
2018-06-10T04:21:55.947Z,24.87
2018-06-10T04:22:28.602Z,19.52
2018-06-10T04:23:01.283Z,24.52
2018-06-10T04:23:33.955Z,23.05
2018-06-10T04:24:06.755Z,20.12
2018-06-10T04:24:39.430Z,18.32
2018-06-10T04:25:12.106Z,21.77
2018-06-10T04:25:44.799Z,26.48
2018-06-10T04:26:17.455Z,20.23
2018-06-10T04:26:50.119Z,22.02
2018-06-10T04:27:22.779Z,20.17
2018-06-10T04:27:55.452Z,19.35
2018-06-10T04:28:28.118Z,19.52
2018-06-10T04:29:00.784Z,20.30
2018-06-10T04:29:33.445Z,18.42
2018-06-10T04:30:06.118Z,24.43
2018-06-10T04:30:38.810Z,22.48
2018-06-10T04:31:11.510Z,18.73
2018-06-10T04:31:44.170Z,20.37
2018-06-10T04:32:16.822Z,19.67
2018-06-10T04:32:49.490Z,21.15
2018-06-10T04:33:22.158Z,20.92
2018-06-10T04:33:54.831Z,22.70
2018-06-10T04:34:27.510Z,18.40
2018-06-10T04:35:00.171Z,20.55
2018-06-10T04:35:32.826Z,18.40
2018-06-10T04:36:05.505Z,16.35
2018-06-10T04:36:38.219Z,15.53
2018-06-10T04:37:10.878Z,20.00
2018-06-10T04:37:43.523Z,18.55
2018-06-10T04:38:16.206Z,16.82
2018-06-10T04:38:48.974Z,20.92
2018-06-10T04:39:21.618Z,21.30
2018-06-10T04:39:54.312Z,18.90
2018-06-10T04:40:26.962Z,19.87
2018-06-10T04:40:59.686Z,20.10
2018-06-10T04:41:32.355Z,23.10
2018-06-10T04:42:05.184Z,20.50
2018-06-10T04:42:37.784Z,24.67
2018-06-10T04:43:10.451Z,18.92
2018-06-10T04:43:43.119Z,19.07
2018-06-10T04:44:15.801Z,18.80
2018-06-10T04:44:48.487Z,20.15
2018-06-10T04:45:21.154Z,17.30
2018-06-10T04:45:53.835Z,28.75
2018-06-10T04:46:26.482Z,21.93
2018-06-10T04:46:59.186Z,22.40
2018-06-10T04:47:31.870Z,19.10
2018-06-10T04:48:04.538Z,24.12
2018-06-10T04:48:37.667Z,22.48
2018-06-10T04:49:10.339Z,23.55
2018-06-10T04:49:43.029Z,19.57
2018-06-10T04:50:15.694Z,22.98
2018-06-10T04:50:48.370Z,22.73
2018-06-10T04:51:21.043Z,22.30
2018-06-10T04:51:53.705Z,18.92
2018-06-10T04:52:26.366Z,19.90
2018-06-10T04:52:59.055Z,20.02
2018-06-10T04:53:31.730Z,23.70
2018-06-10T04:54:04.438Z,21.02
2018-06-10T04:54:37.163Z,17.30
2018-06-10T04:55:09.842Z,20.40
2018-06-10T04:55:42.530Z,21.70
2018-06-10T04:56:15.247Z,22.65
2018-06-10T04:56:47.899Z,19.67
2018-06-10T04:57:20.570Z,17.15
2018-06-10T04:57:53.244Z,20.92
2018-06-10T04:58:25.930Z,21.30
2018-06-10T04:58:58.689Z,19.27
2018-06-10T04:59:31.351Z,21.48
2018-06-10T05:00:04.259Z,16.00
2018-06-10T05:00:36.980Z,20.85
2018-06-10T05:01:09.678Z,18.87
2018-06-10T05:01:42.362Z,19.48
2018-06-10T05:02:15.031Z,16.17
2018-06-10T05:02:47.690Z,15.65
2018-06-10T05:03:20.330Z,18.77
2018-06-10T05:03:52.954Z,19.23
2018-06-10T05:04:25.609Z,16.17
2018-06-10T05:04:58.301Z,14.83
2018-06-10T05:05:30.967Z,13.93
2018-06-10T05:06:03.634Z,21.02
2018-06-10T05:06:36.307Z,15.05
2018-06-10T05:07:08.991Z,12.75
2018-06-10T05:07:41.686Z,11.83
2018-06-10T05:08:14.354Z,17.37
2018-06-10T05:08:47.017Z,16.57
2018-06-10T05:09:19.734Z,17.30
2018-06-10T05:09:52.390Z,12.33
2018-06-10T05:10:25.051Z,10.95
2018-06-10T05:10:57.709Z,12.80
2018-06-10T05:11:30.366Z,18.45
2018-06-10T05:12:03.022Z,13.05
2018-06-10T05:12:35.702Z,11.97
2018-06-10T05:13:08.410Z,11.22
2018-06-10T05:13:41.091Z,11.05
2018-06-10T05:14:13.754Z,11.08
2018-06-10T05:14:46.443Z,13.62
2018-06-10T05:15:19.126Z,13.38
2018-06-10T05:15:51.786Z,34.27
2018-06-10T05:16:24.458Z,9.53
2018-06-10T05:16:57.115Z,10.78
2018-06-10T05:17:29.786Z,12.88
2018-06-10T05:18:02.454Z,13.85
2018-06-10T05:18:35.134Z,14.60
2018-06-10T05:19:07.822Z,9.65
2018-06-10T05:19:40.557Z,13.15
2018-06-10T05:20:13.301Z,16.07
2018-06-10T05:20:45.942Z,12.43
2018-06-10T05:21:18.614Z,14.60
2018-06-10T05:21:51.270Z,9.35
2018-06-10T05:22:23.940Z,18.70
2018-06-10T05:22:56.630Z,11.45
2018-06-10T05:23:29.287Z,12.93
2018-06-10T05:24:01.954Z,11.28
2018-06-10T05:24:34.611Z,15.38
2018-06-10T05:25:07.327Z,14.07
2018-06-10T05:25:40.052Z,12.53
2018-06-10T05:26:12.742Z,9.53
2018-06-10T05:26:45.395Z,13.22
2018-06-10T05:27:18.070Z,12.95
2018-06-10T05:27:50.729Z,9.78
2018-06-10T05:28:23.317Z,12.78
2018-06-10T05:28:55.991Z,8.53
2018-06-10T05:29:28.662Z,10.82
2018-06-10T05:30:01.419Z,17.20
2018-06-10T05:30:34.095Z,8.15
2018-06-10T05:31:06.800Z,14.35
2018-06-10T05:31:39.470Z,10.65
2018-06-10T05:32:12.123Z,12.58
2018-06-10T05:32:44.795Z,12.47
2018-06-10T05:33:17.459Z,11.80
2018-06-10T05:33:50.127Z,11.00
2018-06-10T05:34:22.799Z,9.23
2018-06-10T05:34:55.462Z,16.77
2018-06-10T05:35:28.127Z,14.55
2018-06-10T05:36:00.774Z,8.63
2018-06-10T05:36:33.475Z,7.40
2018-06-10T05:37:06.162Z,9.40
2018-06-10T05:37:38.839Z,12.13
2018-06-10T05:38:11.538Z,9.73
2018-06-10T05:38:44.194Z,8.80
2018-06-10T05:39:16.854Z,18.35
2018-06-10T05:39:49.554Z,9.85
2018-06-10T05:40:22.227Z,14.55
2018-06-10T05:40:54.899Z,16.67
2018-06-10T05:41:27.562Z,10.70
2018-06-10T05:42:00.266Z,16.90
2018-06-10T05:42:32.943Z,10.50
2018-06-10T05:43:05.865Z,14.00
2018-06-10T05:43:38.551Z,8.73
2018-06-10T05:44:11.459Z,10.32
2018-06-10T05:44:44.150Z,10.28
2018-06-10T05:45:16.828Z,10.55
2018-06-10T05:45:49.498Z,10.15
2018-06-10T05:46:22.190Z,13.72
2018-06-10T05:46:54.856Z,16.32
2018-06-10T05:47:27.582Z,12.82
2018-06-10T05:48:00.262Z,10.85
2018-06-10T05:48:32.931Z,8.08
2018-06-10T05:49:05.634Z,13.53
2018-06-10T05:49:38.359Z,11.33
2018-06-10T05:50:11.049Z,11.67
2018-06-10T05:50:43.726Z,14.23
2018-06-10T05:51:16.439Z,10.50
2018-06-10T05:51:49.083Z,8.87
2018-06-10T05:52:21.747Z,9.63
2018-06-10T05:52:54.462Z,7.50
2018-06-10T05:53:27.124Z,13.78
2018-06-10T05:53:59.790Z,9.50
2018-06-10T05:54:32.449Z,7.67
2018-06-10T05:55:05.172Z,18.07
2018-06-10T05:55:37.895Z,7.70
2018-06-10T05:56:10.562Z,9.20
2018-06-10T05:56:43.239Z,11.23
2018-06-10T05:57:15.938Z,12.10
2018-06-10T05:57:48.599Z,7.80
2018-06-10T05:58:21.298Z,9.77
2018-06-10T05:58:53.974Z,7.87
2018-06-10T05:59:26.658Z,9.43
2018-06-10T05:59:59.327Z,8.70
2018-06-10T06:00:32.006Z,9.37
2018-06-10T06:01:04.710Z,9.07
2018-06-10T06:01:38.091Z,9.53
2018-06-10T06:02:10.747Z,7.47
2018-06-10T06:02:43.450Z,6.87
2018-06-10T06:03:16.126Z,19.70
2018-06-10T06:03:48.833Z,8.87
2018-06-10T06:04:21.494Z,7.80
2018-06-10T06:04:54.170Z,9.40
2018-06-10T06:05:26.900Z,8.87
2018-06-10T06:05:59.551Z,15.20
2018-06-10T06:06:32.226Z,11.50
2018-06-10T06:07:04.896Z,14.63
2018-06-10T06:07:37.570Z,7.33
2018-06-10T06:08:10.255Z,9.50
2018-06-10T06:08:42.938Z,8.90
2018-06-10T06:09:15.655Z,11.03
2018-06-10T06:09:48.318Z,8.00
2018-06-10T06:10:20.970Z,8.30
2018-06-10T06:10:53.615Z,10.37
2018-06-10T06:11:26.274Z,7.40
2018-06-10T06:11:58.938Z,12.47
2018-06-10T06:12:31.635Z,7.57
2018-06-10T06:13:04.304Z,9.10
2018-06-10T06:13:36.983Z,9.53
2018-06-10T06:14:09.695Z,8.33
2018-06-10T06:14:42.395Z,11.60
2018-06-10T06:15:15.078Z,13.53
2018-06-10T06:15:47.839Z,12.70
2018-06-10T06:16:20.519Z,9.00
2018-06-10T06:16:53.194Z,8.37
2018-06-10T06:17:25.882Z,7.60
2018-06-10T06:17:58.583Z,10.27
2018-06-10T06:18:31.242Z,10.03
2018-06-10T06:19:03.906Z,9.23
2018-06-10T06:19:36.590Z,10.30
2018-06-10T06:20:09.282Z,15.40
2018-06-10T06:20:41.974Z,7.93
2018-06-10T06:21:14.627Z,9.87
2018-06-10T06:21:47.302Z,9.53
2018-06-10T06:22:19.998Z,8.00
2018-06-10T06:22:52.694Z,7.60
2018-06-10T06:23:25.372Z,11.93
2018-06-10T06:23:58.020Z,10.60
2018-06-10T06:24:30.686Z,14.80
2018-06-10T06:25:03.386Z,14.50
2018-06-10T06:25:36.110Z,10.67
2018-06-10T06:26:08.787Z,9.10
2018-06-10T06:26:41.443Z,9.30
2018-06-10T06:27:14.147Z,7.97
2018-06-10T06:27:46.810Z,13.80
2018-06-10T06:28:19.503Z,13.30
2018-06-10T06:28:52.214Z,11.37
2018-06-10T06:29:24.899Z,9.13
2018-06-10T06:29:57.553Z,9.63
2018-06-10T06:30:30.216Z,10.20
2018-06-10T06:31:02.927Z,12.10
2018-06-10T06:31:35.592Z,7.07
2018-06-10T06:32:08.258Z,9.87
2018-06-10T06:32:40.925Z,12.30
2018-06-10T06:33:13.642Z,7.47
2018-06-10T06:33:46.284Z,10.73
2018-06-10T06:34:18.967Z,13.00
2018-06-10T06:34:51.651Z,7.57
2018-06-10T06:35:24.343Z,14.80
2018-06-10T06:35:57.038Z,10.20
2018-06-10T06:36:29.740Z,11.50
2018-06-10T06:37:02.406Z,10.77
2018-06-10T06:37:35.082Z,9.43
2018-06-10T06:38:07.750Z,11.33
2018-06-10T06:38:40.439Z,7.33
2018-06-10T06:39:13.110Z,9.20
2018-06-10T06:39:45.770Z,11.00
2018-06-10T06:40:18.440Z,10.20
2018-06-10T06:40:51.159Z,6.80
2018-06-10T06:41:23.854Z,9.20
2018-06-10T06:41:56.606Z,15.70
2018-06-10T06:42:29.311Z,8.40
2018-06-10T06:43:02.371Z,13.60
2018-06-10T06:43:35.063Z,10.00
2018-06-10T06:44:07.730Z,9.33
2018-06-10T06:44:40.407Z,9.43
2018-06-10T06:45:13.082Z,11.67
2018-06-10T06:45:45.750Z,10.00
2018-06-10T06:46:18.438Z,8.60
2018-06-10T06:46:51.142Z,8.53
2018-06-10T06:47:23.882Z,7.40
2018-06-10T06:47:56.586Z,7.50
2018-06-10T06:48:29.330Z,9.70
2018-06-10T06:49:01.991Z,8.47
2018-06-10T06:49:34.673Z,8.67
2018-06-10T06:50:07.331Z,9.00
2018-06-10T06:50:39.998Z,9.80
2018-06-10T06:51:12.690Z,10.90
2018-06-10T06:51:45.363Z,8.83
2018-06-10T06:52:18.035Z,8.57
2018-06-10T06:52:51.059Z,8.57
2018-06-10T06:53:23.758Z,8.97
2018-06-10T06:53:56.434Z,11.00
2018-06-10T06:54:29.114Z,9.23
2018-06-10T06:55:01.770Z,9.13
2018-06-10T06:55:34.458Z,8.63
2018-06-10T06:56:07.526Z,9.17
2018-06-10T06:56:40.202Z,7.83
2018-06-10T06:57:12.870Z,8.63
2018-06-10T06:57:45.541Z,10.80
2018-06-10T06:58:18.261Z,9.90
2018-06-10T06:58:51.043Z,9.17
2018-06-10T06:59:23.741Z,8.27
2018-06-10T06:59:56.418Z,9.80
2018-06-10T07:00:29.094Z,8.43
2018-06-10T07:01:01.807Z,6.70
2018-06-10T07:01:34.494Z,8.70
2018-06-10T07:02:07.150Z,7.77
2018-06-10T07:02:39.729Z,10.00
2018-06-10T07:03:12.397Z,12.87